createdAt,value
2023-05-22T00:01:16.219Z,23.48
2023-05-22T00:03:43.497Z,25.75
2023-05-22T00:06:12.013Z,24.63
2023-05-22T00:08:39.128Z,26.40
2023-05-22T00:11:06.513Z,25.00
2023-05-22T00:13:33.345Z,24.65
2023-05-22T00:16:00.265Z,23.15
2023-05-22T00:18:27.868Z,26.48
2023-05-22T00:20:55.359Z,25.40
2023-05-22T00:23:22.723Z,27.27
2023-05-22T00:25:50.748Z,27.58
2023-05-22T00:28:18.308Z,29.25
2023-05-22T00:30:45.844Z,25.05
2023-05-22T00:33:12.944Z,27.63
2023-05-22T00:35:40.592Z,32.50
2023-05-22T00:38:08.745Z,32.67
2023-05-22T00:40:36.363Z,37.58
2023-05-22T00:43:08.488Z,33.97
2023-05-22T00:45:36.351Z,29.70
2023-05-22T00:48:03.844Z,31.48
2023-05-22T00:50:31.174Z,36.33
2023-05-22T00:52:58.515Z,32.35
2023-05-22T00:55:25.983Z,36.13
2023-05-22T00:57:53.290Z,41.67
2023-05-22T01:00:20.650Z,35.50
2023-05-22T01:02:47.993Z,33.25
2023-05-22T01:05:18.208Z,31.25
2023-05-22T01:07:46.420Z,33.50
2023-05-22T01:10:13.434Z,36.17
2023-05-22T01:12:54.786Z,35.55
2023-05-22T01:15:57.440Z,32.80
2023-05-22T01:18:55.024Z,34.00
2023-05-22T01:21:30.103Z,31.77
2023-05-22T01:24:27.946Z,38.13
2023-05-22T01:26:55.234Z,36.30
2023-05-22T01:29:41.192Z,36.80
2023-05-22T01:32:10.753Z,32.90
2023-05-22T01:34:39.348Z,31.65
2023-05-22T01:37:07.183Z,37.60
2023-05-22T01:39:34.568Z,34.50
2023-05-22T01:42:02.349Z,31.52
2023-05-22T01:44:29.599Z,34.20
2023-05-22T01:47:00.515Z,31.90
2023-05-22T01:49:28.444Z,30.83
2023-05-22T01:52:02.041Z,32.30
2023-05-22T01:54:30.200Z,33.28
2023-05-22T01:57:10.582Z,35.70
2023-05-22T01:59:49.631Z,33.30
2023-05-22T02:02:19.359Z,41.33
2023-05-22T02:04:56.200Z,35.15
2023-05-22T02:07:25.072Z,38.70
2023-05-22T02:09:55.239Z,38.75
2023-05-22T02:12:23.752Z,28.55
2023-05-22T02:14:51.289Z,32.60
2023-05-22T02:17:18.550Z,35.38
2023-05-22T02:19:45.719Z,37.50
2023-05-22T02:22:15.755Z,37.50
2023-05-22T02:24:47.400Z,39.22
2023-05-22T02:27:17.274Z,38.97
2023-05-22T02:29:44.181Z,44.53
2023-05-22T02:32:11.821Z,42.30
2023-05-22T02:34:39.131Z,35.78
2023-05-22T02:37:06.597Z,34.05
2023-05-22T02:39:33.477Z,42.03
2023-05-22T02:42:00.846Z,41.00
2023-05-22T02:44:28.477Z,47.58
2023-05-22T02:46:57.254Z,48.05
2023-05-22T02:49:24.350Z,42.15
2023-05-22T02:51:51.650Z,41.93
2023-05-22T02:54:18.998Z,39.67
2023-05-22T02:56:46.344Z,41.20
2023-05-22T02:59:13.255Z,41.42
2023-05-22T03:01:40.266Z,42.60
2023-05-22T03:04:07.209Z,39.30
2023-05-22T03:06:35.368Z,48.72
2023-05-22T03:09:04.184Z,50.60
2023-05-22T03:11:31.872Z,44.97
2023-05-22T03:13:58.874Z,53.78
2023-05-22T03:16:26.765Z,46.07
2023-05-22T03:19:11.111Z,101.97
2023-05-22T03:21:38.973Z,132.85
2023-05-22T03:24:06.540Z,55.22
2023-05-22T03:26:34.133Z,68.43
2023-05-22T03:29:03.914Z,115.07
2023-05-22T03:31:32.938Z,93.72
2023-05-22T03:34:08.539Z,97.15
2023-05-22T03:36:37.537Z,119.55
2023-05-22T03:39:05.340Z,57.75
2023-05-22T03:41:37.101Z,46.17
2023-05-22T03:44:05.069Z,42.58
2023-05-22T03:46:33.889Z,44.95
2023-05-22T03:49:01.038Z,46.45
2023-05-22T03:51:27.967Z,40.78
2023-05-22T03:53:55.237Z,44.50
2023-05-22T03:56:22.134Z,37.47
2023-05-22T03:58:50.220Z,42.63
2023-05-22T04:01:18.069Z,46.30
2023-05-22T04:03:45.259Z,43.78
2023-05-22T04:06:13.715Z,45.10
2023-05-22T04:08:40.781Z,43.00
2023-05-22T04:11:08.301Z,44.72
2023-05-22T04:13:35.358Z,41.35
2023-05-22T04:16:03.723Z,39.55
2023-05-22T04:18:30.621Z,36.27
2023-05-22T04:20:57.901Z,45.58
2023-05-22T04:23:24.980Z,44.92
2023-05-22T04:25:52.929Z,42.05
2023-05-22T04:28:22.446Z,42.80
2023-05-22T04:30:49.989Z,42.17
2023-05-22T04:33:18.397Z,43.47
2023-05-22T04:35:45.721Z,40.45
2023-05-22T04:38:13.110Z,38.20
2023-05-22T04:40:40.677Z,39.13
2023-05-22T04:43:08.470Z,37.63
2023-05-22T04:45:35.775Z,38.55
2023-05-22T04:48:03.318Z,36.22
2023-05-22T04:50:36.116Z,40.72
2023-05-22T04:53:04.480Z,41.03
2023-05-22T04:55:34.015Z,38.13
2023-05-22T04:58:01.534Z,40.08
2023-05-22T05:00:28.997Z,38.20
2023-05-22T05:02:57.515Z,35.33
2023-05-22T05:05:25.404Z,44.03
2023-05-22T05:07:53.791Z,38.03
2023-05-22T05:10:20.786Z,38.90
2023-05-22T05:12:48.127Z,40.15
2023-05-22T05:15:15.142Z,39.97
2023-05-22T05:17:42.787Z,39.80
2023-05-22T05:20:10.649Z,42.10
2023-05-22T05:22:39.778Z,42.28
2023-05-22T05:25:08.530Z,43.28
2023-05-22T05:27:36.894Z,44.17
2023-05-22T05:30:04.552Z,44.72
2023-05-22T05:32:44.128Z,43.20
2023-05-22T05:35:42.854Z,44.15
2023-05-22T05:38:11.916Z,41.65
2023-05-22T05:40:41.983Z,42.95
2023-05-22T05:43:10.981Z,39.78
2023-05-22T05:45:38.630Z,43.97
2023-05-22T05:48:06.513Z,40.05
2023-05-22T05:50:35.211Z,49.15
2023-05-22T05:53:02.654Z,38.10
2023-05-22T05:55:29.577Z,44.45
2023-05-22T05:57:57.731Z,43.23
2023-05-22T06:00:39.336Z,38.80
2023-05-22T06:03:06.606Z,42.55
2023-05-22T06:06:03.420Z,40.92
2023-05-22T06:08:48.980Z,36.15
2023-05-22T06:11:16.938Z,39.00
2023-05-22T06:13:54.155Z,35.53
2023-05-22T06:16:21.857Z,35.25
2023-05-22T06:18:49.623Z,36.42
2023-05-22T06:21:17.867Z,33.45
2023-05-22T06:23:45.164Z,35.63
2023-05-22T06:26:12.498Z,32.53
2023-05-22T06:28:41.840Z,33.78
2023-05-22T06:31:09.729Z,29.95
2023-05-22T06:33:37.981Z,34.67
2023-05-22T06:36:05.528Z,33.23
2023-05-22T06:38:32.981Z,29.38
2023-05-22T06:41:00.551Z,32.78
2023-05-22T06:43:27.873Z,28.63
2023-05-22T06:46:00.213Z,33.47
2023-05-22T06:48:39.558Z,34.00
2023-05-22T06:51:21.958Z,28.20
2023-05-22T06:53:52.443Z,30.30
2023-05-22T06:56:24.858Z,29.30
2023-05-22T06:59:12.212Z,27.00
2023-05-22T07:02:02.012Z,28.23
2023-05-22T07:04:52.502Z,30.70
2023-05-22T07:07:33.442Z,25.70
2023-05-22T07:10:00.378Z,23.85
2023-05-22T07:12:29.188Z,26.95
2023-05-22T07:14:57.322Z,27.60
2023-05-22T07:17:26.359Z,25.15
2023-05-22T07:19:54.311Z,27.40
2023-05-22T07:22:22.006Z,28.23
2023-05-22T07:24:49.120Z,26.75
2023-05-22T07:27:18.302Z,26.03
2023-05-22T07:29:48.051Z,24.98
2023-05-22T07:32:15.440Z,25.67
2023-05-22T07:34:44.386Z,28.55
2023-05-22T07:37:14.051Z,22.67
2023-05-22T07:39:42.588Z,28.90
2023-05-22T07:42:10.364Z,26.08
2023-05-22T07:44:44.993Z,23.88
2023-05-22T07:47:12.315Z,25.73
2023-05-22T07:49:40.500Z,26.77
2023-05-22T07:52:07.912Z,25.37
2023-05-22T07:54:34.974Z,28.63
2023-05-22T07:57:03.531Z,29.08
2023-05-22T07:59:35.794Z,24.10
2023-05-22T08:02:02.869Z,25.88
2023-05-22T08:04:30.087Z,25.63
2023-05-22T08:06:57.282Z,24.10
2023-05-22T08:09:24.349Z,25.52
2023-05-22T08:11:51.586Z,29.60
2023-05-22T08:14:18.487Z,24.27
2023-05-22T08:16:45.565Z,23.37
2023-05-22T08:19:13.131Z,20.95
2023-05-22T08:21:40.430Z,22.58
2023-05-22T08:24:08.542Z,22.40
2023-05-22T08:26:36.199Z,19.30
2023-05-22T08:29:03.243Z,21.67
2023-05-22T08:31:30.216Z,21.58
2023-05-22T08:34:02.896Z,22.80
2023-05-22T08:36:31.699Z,22.50
2023-05-22T08:38:58.645Z,22.23
2023-05-22T08:41:25.642Z,23.00
2023-05-22T08:43:52.994Z,26.17
2023-05-22T08:46:20.407Z,22.02
2023-05-22T08:48:48.524Z,19.75
2023-05-22T08:51:19.836Z,16.48
2023-05-22T08:53:51.632Z,18.97
2023-05-22T08:56:19.345Z,18.58
2023-05-22T08:58:46.978Z,16.98
2023-05-22T09:01:14.461Z,19.05
2023-05-22T09:03:41.539Z,19.38
2023-05-22T09:06:10.369Z,18.80
2023-05-22T09:08:38.560Z,16.38
2023-05-22T09:11:05.514Z,18.23
2023-05-22T09:13:32.453Z,18.02
2023-05-22T09:16:10.073Z,15.63
2023-05-22T09:18:38.445Z,16.97
2023-05-22T09:21:17.732Z,18.63
2023-05-22T09:23:54.248Z,17.23
2023-05-22T09:26:21.635Z,17.67
2023-05-22T09:28:48.476Z,16.67
2023-05-22T09:31:15.420Z,18.43
2023-05-22T09:33:44.328Z,18.42
2023-05-22T09:36:11.717Z,17.55
2023-05-22T09:38:39.981Z,17.45
2023-05-22T09:41:06.868Z,20.60
2023-05-22T09:43:34.003Z,18.17
2023-05-22T09:46:02.483Z,21.80
2023-05-22T09:48:29.626Z,19.25
2023-05-22T09:50:59.867Z,18.77
2023-05-22T09:53:31.017Z,23.05
2023-05-22T09:55:59.874Z,26.10
2023-05-22T09:58:30.961Z,19.70
2023-05-22T10:00:59.258Z,16.98
2023-05-22T10:03:27.438Z,16.88
2023-05-22T10:05:58.750Z,22.30
2023-05-22T10:08:28.976Z,18.10
2023-05-22T10:10:56.227Z,18.67
2023-05-22T10:13:25.195Z,18.13
2023-05-22T10:15:53.275Z,18.88
2023-05-22T10:18:20.549Z,21.50
2023-05-22T10:20:48.292Z,21.37
2023-05-22T10:23:18.583Z,18.27
2023-05-22T10:25:46.486Z,23.40
2023-05-22T10:28:24.349Z,15.85
2023-05-22T10:31:00.252Z,16.27
2023-05-22T10:33:56.238Z,18.20
2023-05-22T10:36:34.773Z,15.13
2023-05-22T10:39:26.424Z,15.93
2023-05-22T10:41:53.981Z,16.48
2023-05-22T10:44:22.547Z,15.70
2023-05-22T10:46:50.457Z,14.43
2023-05-22T10:49:23.962Z,16.17
2023-05-22T10:51:57.073Z,16.58
2023-05-22T10:54:43.761Z,16.85
2023-05-22T10:57:16.174Z,16.55
2023-05-22T10:59:44.628Z,16.70
2023-05-22T11:02:31.325Z,19.33
2023-05-22T11:05:17.008Z,18.48
2023-05-22T11:07:43.937Z,19.92
2023-05-22T11:10:11.399Z,16.75
2023-05-22T11:12:38.390Z,19.17
2023-05-22T11:15:08.141Z,16.67
2023-05-22T11:17:44.984Z,17.17
2023-05-22T11:20:22.531Z,16.45
2023-05-22T11:23:01.549Z,18.00
2023-05-22T11:25:29.806Z,17.20
2023-05-22T11:27:57.657Z,20.63
2023-05-22T11:30:28.779Z,17.33
2023-05-22T11:32:58.464Z,14.82
2023-05-22T11:35:26.268Z,17.92
2023-05-22T11:37:54.799Z,15.03
2023-05-22T11:40:26.062Z,19.50
2023-05-22T11:42:53.955Z,18.27
2023-05-22T11:45:21.634Z,17.48
2023-05-22T11:47:49.078Z,16.95
2023-05-22T11:50:22.622Z,18.10
2023-05-22T11:52:54.565Z,16.67
2023-05-22T11:55:22.866Z,17.13
2023-05-22T11:57:49.991Z,18.05
2023-05-22T12:00:17.745Z,17.10
2023-05-22T12:02:46.565Z,14.63
2023-05-22T12:05:14.065Z,16.65
2023-05-22T12:07:41.371Z,17.75
2023-05-22T12:10:08.585Z,16.75
2023-05-22T12:12:35.665Z,21.17
2023-05-22T12:15:06.348Z,18.47
2023-05-22T12:17:37.570Z,19.30
2023-05-22T12:20:06.210Z,22.20
2023-05-22T12:22:33.145Z,15.45
2023-05-22T12:25:00.130Z,18.63
2023-05-22T12:27:33.201Z,17.03
2023-05-22T12:30:10.415Z,17.10
2023-05-22T12:32:37.352Z,19.00
2023-05-22T12:35:04.653Z,16.90
2023-05-22T12:37:34.055Z,14.48
2023-05-22T12:40:04.210Z,16.47
2023-05-22T12:42:31.327Z,16.55
2023-05-22T12:44:59.869Z,16.40
2023-05-22T12:47:27.075Z,16.77
2023-05-22T12:49:53.972Z,16.77
2023-05-22T12:52:20.873Z,16.67
2023-05-22T12:54:47.916Z,19.38
2023-05-22T12:57:16.745Z,16.17
2023-05-22T12:59:44.083Z,19.10
2023-05-22T13:02:10.946Z,16.27
2023-05-22T13:04:37.869Z,17.50
2023-05-22T13:07:04.909Z,18.27
2023-05-22T13:09:31.878Z,19.50
2023-05-22T13:12:00.042Z,21.60
2023-05-22T13:14:27.039Z,17.58
2023-05-22T13:16:54.086Z,16.33
2023-05-22T13:19:21.079Z,13.45
2023-05-22T13:21:47.931Z,13.35
2023-05-22T13:24:15.009Z,14.60
2023-05-22T13:26:41.883Z,15.13
2023-05-22T13:29:08.913Z,15.53
2023-05-22T13:31:37.932Z,17.17
2023-05-22T13:34:05.498Z,18.27
2023-05-22T13:36:32.998Z,22.63
2023-05-22T13:39:00.043Z,22.77
2023-05-22T13:41:27.188Z,19.30
2023-05-22T13:43:54.636Z,18.33
2023-05-22T13:46:22.251Z,20.50
2023-05-22T13:48:49.503Z,15.77
2023-05-22T13:51:16.812Z,15.82
2023-05-22T13:53:43.707Z,15.73
2023-05-22T13:56:10.667Z,16.00
2023-05-22T13:58:37.534Z,17.83
2023-05-22T14:01:04.590Z,13.25
2023-05-22T14:03:31.730Z,14.82
2023-05-22T14:05:58.648Z,14.50
2023-05-22T14:08:25.900Z,14.20
2023-05-22T14:10:52.811Z,12.82
2023-05-22T14:13:19.898Z,13.75
2023-05-22T14:15:47.073Z,11.82
2023-05-22T14:18:16.226Z,12.00
2023-05-22T14:20:43.921Z,10.40
2023-05-22T14:23:11.767Z,11.25
2023-05-22T14:25:42.745Z,12.57
2023-05-22T14:28:13.916Z,11.85
2023-05-22T14:30:40.987Z,10.50
2023-05-22T14:33:08.425Z,11.05
2023-05-22T14:35:35.339Z,13.23
2023-05-22T14:38:02.226Z,12.02
2023-05-22T14:40:29.189Z,12.35
2023-05-22T14:42:56.315Z,9.63
2023-05-22T14:45:23.542Z,11.68
2023-05-22T14:47:50.722Z,14.38
2023-05-22T14:50:20.349Z,13.30
2023-05-22T14:52:48.721Z,14.68
2023-05-22T14:55:16.709Z,13.63
2023-05-22T14:57:43.673Z,13.85
2023-05-22T15:00:12.088Z,15.38
2023-05-22T15:02:39.111Z,13.70
2023-05-22T15:05:07.240Z,14.65
2023-05-22T15:10:05.809Z,12.35
2023-05-22T15:12:33.281Z,14.32
2023-05-22T15:15:01.474Z,16.17
2023-05-22T15:17:28.587Z,11.30
2023-05-22T15:19:55.959Z,11.57
2023-05-22T15:22:22.891Z,10.55
2023-05-22T15:25:04.556Z,10.98
2023-05-22T15:27:32.152Z,10.85
2023-05-22T15:29:59.055Z,14.05
2023-05-22T15:32:26.340Z,9.77
2023-05-22T15:34:53.316Z,9.10
2023-05-22T15:37:20.437Z,10.55
2023-05-22T15:39:47.367Z,9.95
2023-05-22T15:42:14.229Z,10.48
2023-05-22T15:44:41.245Z,10.30
2023-05-22T15:47:08.185Z,9.85
2023-05-22T15:49:35.045Z,12.45
2023-05-22T15:52:02.851Z,8.68
2023-05-22T15:54:29.934Z,10.35
2023-05-22T15:56:57.371Z,9.00
2023-05-22T15:59:24.291Z,8.30
2023-05-22T16:01:51.329Z,10.68
2023-05-22T16:04:18.205Z,10.50
2023-05-22T16:06:45.199Z,9.10
2023-05-22T16:09:12.689Z,9.93
2023-05-22T16:11:39.728Z,9.32
2023-05-22T16:14:06.634Z,8.25
2023-05-22T16:16:33.605Z,7.68
2023-05-22T16:19:00.802Z,10.65
2023-05-22T16:21:27.964Z,8.63
2023-05-22T16:23:54.858Z,7.18
2023-05-22T16:26:22.702Z,10.88
2023-05-22T16:28:49.615Z,7.93
2023-05-22T16:31:19.276Z,11.45
2023-05-22T16:33:46.440Z,8.97
2023-05-22T16:36:13.585Z,8.40
2023-05-22T16:38:40.672Z,7.70
2023-05-22T16:41:07.579Z,8.35
2023-05-22T16:43:34.705Z,7.88
2023-05-22T16:46:01.517Z,8.37
2023-05-22T16:48:28.467Z,8.10
2023-05-22T16:50:55.448Z,8.07
2023-05-22T16:53:22.337Z,10.10
2023-05-22T16:55:49.389Z,10.20
2023-05-22T16:58:16.309Z,8.63
2023-05-22T17:00:43.544Z,8.80
2023-05-22T17:03:12.127Z,9.68
2023-05-22T17:05:39.929Z,9.82
2023-05-22T17:08:07.212Z,9.30
2023-05-22T17:10:34.113Z,12.47
2023-05-22T17:13:00.977Z,11.50
2023-05-22T17:15:27.955Z,12.10
2023-05-22T17:17:54.974Z,9.15
2023-05-22T17:20:25.131Z,12.20
2023-05-22T17:22:52.477Z,10.27
2023-05-22T17:25:19.501Z,10.38
2023-05-22T17:27:46.506Z,9.18
2023-05-22T17:30:13.509Z,8.75
2023-05-22T17:32:40.545Z,10.75
2023-05-22T17:35:07.709Z,8.30
2023-05-22T17:37:34.578Z,8.45
2023-05-22T17:40:01.492Z,7.88
2023-05-22T17:42:28.449Z,8.45
2023-05-22T17:44:55.312Z,8.00
2023-05-22T17:47:22.369Z,9.30
2023-05-22T17:49:49.579Z,11.52
2023-05-22T17:52:16.743Z,8.65
2023-05-22T17:54:43.641Z,8.18
2023-05-22T17:57:10.564Z,9.40
2023-05-22T17:59:39.775Z,9.37
2023-05-22T18:02:08.464Z,12.13
2023-05-22T18:04:36.258Z,12.35
2023-05-22T18:07:03.869Z,9.18
2023-05-22T18:09:30.874Z,8.20
2023-05-22T18:12:02.834Z,9.47
2023-05-22T18:14:29.863Z,10.85
2023-05-22T18:16:58.294Z,9.95
2023-05-22T18:19:25.464Z,9.73
2023-05-22T18:21:53.630Z,19.50
2023-05-22T18:24:25.059Z,10.43
2023-05-22T18:26:52.677Z,8.73
2023-05-22T18:29:19.607Z,10.30
2023-05-22T18:31:46.488Z,8.32
2023-05-22T18:34:13.747Z,11.25
2023-05-22T18:36:43.290Z,12.63
2023-05-22T18:39:11.006Z,10.40
2023-05-22T18:41:38.073Z,11.80
2023-05-22T18:44:05.052Z,8.63
2023-05-22T18:46:31.966Z,8.55
2023-05-22T18:48:59.308Z,11.27
2023-05-22T18:51:26.591Z,12.93
2023-05-22T18:53:53.783Z,8.75
2023-05-22T18:56:21.268Z,12.05
2023-05-22T18:58:48.850Z,8.77
2023-05-22T19:01:17.259Z,16.03
2023-05-22T19:03:44.516Z,8.95
2023-05-22T19:06:12.759Z,10.05
2023-05-22T19:08:40.379Z,9.65
2023-05-22T19:11:07.335Z,9.52
2023-05-22T19:13:34.687Z,10.50
2023-05-22T19:16:05.707Z,12.93
2023-05-22T19:18:33.193Z,15.23
2023-05-22T19:21:00.540Z,17.80
2023-05-22T19:23:29.353Z,16.02
2023-05-22T19:25:58.318Z,15.30
2023-05-22T19:28:31.034Z,14.27
2023-05-22T19:31:00.049Z,14.50
2023-05-22T19:33:27.581Z,13.23
2023-05-22T19:35:55.430Z,12.43
2023-05-22T19:38:23.497Z,13.00
2023-05-22T19:40:50.754Z,14.05
2023-05-22T19:43:17.915Z,15.30
2023-05-22T19:45:45.514Z,12.10
2023-05-22T19:48:13.192Z,12.70
2023-05-22T19:50:41.193Z,10.07
2023-05-22T19:53:08.350Z,11.18
2023-05-22T19:55:35.840Z,10.88
2023-05-22T19:58:03.603Z,13.38
2023-05-22T20:00:31.933Z,14.73
2023-05-22T20:02:59.294Z,13.73
2023-05-22T20:05:26.418Z,13.88
2023-05-22T20:07:54.267Z,16.10
2023-05-22T20:10:21.696Z,16.80
2023-05-22T20:12:49.162Z,15.55
2023-05-22T20:15:17.778Z,14.53
2023-05-22T20:17:47.479Z,16.88
2023-05-22T20:20:15.073Z,18.63
2023-05-22T20:22:42.310Z,14.75
2023-05-22T20:25:09.898Z,16.42
2023-05-22T20:27:37.504Z,17.73
2023-05-22T20:30:05.035Z,19.25
2023-05-22T20:32:32.411Z,15.32
2023-05-22T20:34:59.699Z,14.30
2023-05-22T20:37:27.110Z,17.98
2023-05-22T20:39:54.427Z,16.80
2023-05-22T20:42:22.418Z,15.52
2023-05-22T20:44:49.309Z,27.80
2023-05-22T20:47:16.171Z,17.63
2023-05-22T20:49:43.818Z,13.82
2023-05-22T20:52:13.351Z,14.40
2023-05-22T20:54:41.184Z,13.40
2023-05-22T20:57:08.494Z,15.20
2023-05-22T20:59:37.474Z,15.13
2023-05-22T21:02:04.843Z,13.98
2023-05-22T21:04:31.829Z,15.83
2023-05-22T21:06:59.164Z,19.67
2023-05-22T21:09:26.603Z,16.48
2023-05-22T21:11:53.528Z,13.68
2023-05-22T21:14:20.862Z,16.38
2023-05-22T21:16:48.354Z,10.93
2023-05-22T21:19:15.857Z,13.38
2023-05-22T21:21:43.629Z,12.75
2023-05-22T21:24:10.523Z,10.25
2023-05-22T21:26:37.622Z,11.38
2023-05-22T21:29:05.066Z,10.77
2023-05-22T21:31:34.659Z,11.35
2023-05-22T21:34:03.245Z,9.70
2023-05-22T21:36:31.452Z,10.10
2023-05-22T21:39:00.330Z,9.38
2023-05-22T21:41:27.816Z,11.17
2023-05-22T21:43:55.283Z,9.45
2023-05-22T21:46:22.732Z,12.75
2023-05-22T21:48:50.090Z,12.10
2023-05-22T21:51:17.406Z,12.48
2023-05-22T21:53:44.693Z,11.20
2023-05-22T21:56:11.504Z,10.30
2023-05-22T21:58:39.019Z,9.23
2023-05-22T22:01:06.310Z,9.50
2023-05-22T22:03:33.699Z,11.00
2023-05-22T22:06:00.640Z,11.47
2023-05-22T22:08:28.448Z,12.50
2023-05-22T22:10:56.275Z,12.82
2023-05-22T22:13:23.576Z,11.05
2023-05-22T22:15:50.730Z,10.48
2023-05-22T22:18:17.661Z,13.23
2023-05-22T22:20:45.679Z,14.20
2023-05-22T22:23:13.449Z,11.15
2023-05-22T22:25:40.737Z,10.98
2023-05-22T22:28:08.158Z,12.10
2023-05-22T22:30:35.674Z,12.03
2023-05-22T22:33:02.782Z,14.23
2023-05-22T22:35:29.902Z,11.65
2023-05-22T22:37:57.400Z,11.55
2023-05-22T22:40:26.639Z,13.43
2023-05-22T22:42:54.188Z,12.43
2023-05-22T22:45:21.506Z,11.43
2023-05-22T22:47:48.978Z,14.00
2023-05-22T22:50:16.173Z,15.55
2023-05-22T22:52:46.186Z,13.55
2023-05-22T22:55:13.618Z,13.80
2023-05-22T22:57:43.354Z,11.90
2023-05-22T23:00:13.428Z,10.88
2023-05-22T23:02:40.799Z,12.02
2023-05-22T23:05:08.594Z,16.02
2023-05-22T23:07:36.173Z,13.03
2023-05-22T23:10:03.128Z,14.52
2023-05-22T23:12:35.251Z,13.32
2023-05-22T23:15:02.877Z,15.02
2023-05-22T23:17:30.371Z,16.27
2023-05-22T23:19:57.654Z,16.10
2023-05-22T23:22:24.614Z,14.02
2023-05-22T23:24:51.696Z,14.43
2023-05-22T23:27:18.991Z,15.52
2023-05-22T23:29:46.288Z,16.45
2023-05-22T23:32:14.817Z,16.70
2023-05-22T23:34:42.502Z,15.93
2023-05-22T23:37:10.010Z,19.27
2023-05-22T23:39:37.309Z,13.10
2023-05-22T23:42:23.249Z,17.05
2023-05-22T23:44:50.661Z,21.57
2023-05-22T23:47:18.742Z,18.60
2023-05-22T23:49:46.056Z,16.67
2023-05-22T23:52:13.569Z,19.77
2023-05-22T23:54:41.107Z,17.95
2023-05-22T23:57:08.623Z,19.60
2023-05-22T23:59:35.924Z,24.10
